Time;durP1;ratioP1;P1;durP2;ratioP2;P2;SDS_P1;SDS_P2;PMS_P1;PMS_P2;Temp;Humidity;BMP_temperature;BMP_pressure;BME280_temperature;BME280_humidity;BME280_pressure;Samples;Min_cycle;Max_cycle;Signal;HPM_P1;HPM_P2
2023/12/18 00:00:13;;;;;;;10.10;9.10;;;5.80;99.90;;;;;;5056054;28;20207;-70
2023/12/18 00:02:39;;;;;;;13.07;9.80;;;5.70;99.90;;;;;;5054623;28;20179;-70
2023/12/18 00:05:06;;;;;;;11.57;9.13;;;5.70;99.90;;;;;;5055756;28;20166;-70
2023/12/18 00:07:31;;;;;;;11.27;9.33;;;5.70;99.90;;;;;;5055521;28;20312;-69
2023/12/18 00:09:57;;;;;;;13.00;9.93;;;5.70;99.90;;;;;;5055606;28;20670;-70
2023/12/18 00:12:23;;;;;;;12.10;9.03;;;5.70;99.90;;;;;;5055630;28;20255;-70
2023/12/18 00:14:49;;;;;;;12.07;9.70;;;5.70;99.90;;;;;;5055471;28;20202;-70
2023/12/18 00:17:14;;;;;;;12.93;9.90;;;5.60;99.90;;;;;;5056062;28;20177;-70
2023/12/18 00:19:40;;;;;;;11.40;9.77;;;5.60;99.90;;;;;;5055349;28;20197;-70
2023/12/18 00:22:06;;;;;;;12.60;9.60;;;5.50;99.90;;;;;;5055131;28;20178;-70
2023/12/18 00:24:32;;;;;;;13.97;10.30;;;5.50;99.90;;;;;;5055279;28;20705;-70
2023/12/18 00:26:58;;;;;;;10.70;9.03;;;5.50;99.90;;;;;;5053980;28;20269;-70
2023/12/18 00:29:23;;;;;;;17.10;10.00;;;5.50;99.90;;;;;;5055417;28;20244;-70
2023/12/18 00:31:49;;;;;;;10.93;9.43;;;5.40;99.90;;;;;;5055274;28;20166;-70
2023/12/18 00:34:15;;;;;;;12.27;9.53;;;5.40;99.90;;;;;;5053804;28;20202;-70
2023/12/18 00:36:42;;;;;;;11.53;8.73;;;5.40;99.90;;;;;;5054736;28;20171;-70
2023/12/18 00:39:07;;;;;;;9.90;8.67;;;5.40;99.90;;;;;;5055040;28;20251;-70
2023/12/18 00:41:33;;;;;;;12.80;8.80;;;5.40;99.90;;;;;;5054965;28;20170;-70
2023/12/18 00:43:59;;;;;;;10.10;8.40;;;5.30;99.90;;;;;;5054946;28;20186;-70
2023/12/18 00:46:25;;;;;;;10.00;8.47;;;5.30;99.90;;;;;;5054974;28;20179;-69
2023/12/18 00:48:51;;;;;;;12.20;9.07;;;5.30;99.90;;;;;;5054787;28;20267;-70
2023/12/18 00:51:17;;;;;;;12.50;8.87;;;5.30;99.90;;;;;;5055090;28;20236;-70
2023/12/18 00:53:43;;;;;;;12.00;8.93;;;5.30;99.90;;;;;;5054697;28;20198;-70
2023/12/18 00:56:09;;;;;;;10.63;8.83;;;5.30;99.90;;;;;;5053504;28;20178;-70
2023/12/18 00:58:35;;;;;;;9.70;8.10;;;5.30;99.90;;;;;;5054840;28;20173;-70
2023/12/18 01:01:01;;;;;;;9.30;8.40;;;5.30;99.90;;;;;;5053530;28;20205;-70
2023/12/18 01:03:28;;;;;;;11.53;8.10;;;5.20;99.90;;;;;;5054689;28;20206;-70
2023/12/18 01:05:54;;;;;;;11.60;9.03;;;5.20;99.90;;;;;;5053344;28;20228;-70
2023/12/18 01:08:20;;;;;;;11.97;8.37;;;5.20;99.90;;;;;;5054210;28;20586;-70
2023/12/18 01:10:46;;;;;;;11.13;8.97;;;5.20;99.90;;;;;;5054392;28;20642;-70
2023/12/18 01:13:12;;;;;;;10.43;8.90;;;5.10;99.90;;;;;;5053211;28;20178;-71
2023/12/18 01:15:38;;;;;;;13.40;8.87;;;5.20;99.90;;;;;;5054350;28;20244;-69
2023/12/18 01:18:04;;;;;;;10.80;8.00;;;5.20;99.90;;;;;;5053033;28;20550;-70
2023/12/18 01:20:30;;;;;;;10.70;9.10;;;5.20;99.90;;;;;;5054243;28;20195;-70
2023/12/18 01:22:55;;;;;;;10.27;8.27;;;5.20;99.90;;;;;;5053993;28;20636;-70
2023/12/18 01:25:21;;;;;;;16.97;8.57;;;5.10;99.90;;;;;;5054195;28;20182;-70
2023/12/18 01:27:47;;;;;;;8.43;7.53;;;5.10;99.90;;;;;;5054533;28;20181;-70
2023/12/18 01:30:13;;;;;;;10.83;8.23;;;5.10;99.90;;;;;;5052833;28;20245;-70
2023/12/18 01:32:39;;;;;;;9.80;8.13;;;5.10;99.90;;;;;;5054442;28;20257;-70
2023/12/18 01:35:05;;;;;;;8.53;7.67;;;5.00;99.90;;;;;;5053959;28;20365;-70
2023/12/18 01:37:32;;;;;;;9.93;7.70;;;5.10;99.90;;;;;;5053747;28;20174;-70
2023/12/18 01:39:57;;;;;;;12.30;8.00;;;5.10;99.90;;;;;;5054049;28;20186;-70
2023/12/18 01:42:23;;;;;;;12.17;7.63;;;5.10;99.90;;;;;;5055061;28;20497;-70
2023/12/18 01:44:49;;;;;;;8.83;7.17;;;5.20;99.90;;;;;;5054457;28;20182;-70
2023/12/18 01:47:16;;;;;;;13.17;7.70;;;5.20;99.90;;;;;;5053980;28;20600;-70
2023/12/18 01:49:42;;;;;;;8.10;7.00;;;5.40;99.90;;;;;;5053153;28;20217;-70
2023/12/18 01:52:08;;;;;;;13.23;7.27;;;5.50;99.90;;;;;;5053619;28;20686;-70
2023/12/18 01:54:35;;;;;;;11.03;7.33;;;5.50;99.90;;;;;;5053632;28;20202;-70
2023/12/18 01:57:02;;;;;;;12.70;7.50;;;5.50;99.90;;;;;;5053627;28;20540;-70
2023/12/18 01:59:29;;;;;;;10.80;7.20;;;5.50;99.90;;;;;;5053459;28;20202;-70
2023/12/18 02:01:55;;;;;;;11.57;7.47;;;5.50;99.90;;;;;;5053832;28;20174;-70
2023/12/18 02:04:22;;;;;;;8.87;7.73;;;5.50;99.90;;;;;;5053701;28;20185;-70
2023/12/18 02:06:48;;;;;;;9.60;8.03;;;5.60;99.90;;;;;;5051936;28;20180;-70
2023/12/18 02:09:15;;;;;;;11.63;7.93;;;5.70;99.90;;;;;;5053361;28;20202;-69
2023/12/18 02:11:44;;;;;;;14.70;8.53;;;5.70;99.90;;;;;;5051986;28;20596;-70
2023/12/18 02:14:10;;;;;;;10.60;8.03;;;5.70;99.90;;;;;;5053389;28;20202;-70
2023/12/18 02:16:36;;;;;;;11.33;8.10;;;5.70;99.90;;;;;;5054401;28;20194;-70
2023/12/18 02:19:02;;;;;;;7.93;7.20;;;5.80;99.90;;;;;;5054914;28;20181;-70
2023/12/18 02:21:28;;;;;;;8.90;7.40;;;5.80;99.90;;;;;;5052693;28;20179;-69
2023/12/18 02:23:54;;;;;;;8.13;7.20;;;5.80;99.90;;;;;;5053501;28;20224;-69
2023/12/18 02:26:20;;;;;;;10.97;7.67;;;5.80;99.90;;;;;;5053265;28;20249;-69
2023/12/18 02:28:46;;;;;;;9.20;7.87;;;5.80;99.90;;;;;;5051920;28;20185;-69
2023/12/18 02:31:18;;;;;;;9.27;7.27;;;5.70;99.90;;;;;;5052933;28;20207;-70
2023/12/18 02:33:48;;;;;;;9.67;7.37;;;5.70;99.90;;;;;;5053021;28;20197;-69
2023/12/18 02:36:14;;;;;;;9.43;7.20;;;5.70;99.90;;;;;;5053006;28;20154;-70
2023/12/18 02:38:39;;;;;;;10.17;7.67;;;5.70;81.10;;;;;;5052811;28;20158;-70
2023/12/18 02:41:05;;;;;;;8.20;6.80;;;5.70;99.90;;;;;;5051526;28;20199;-70
2023/12/18 02:43:31;;;;;;;10.37;7.37;;;5.70;99.90;;;;;;5051513;28;20193;-70
2023/12/18 02:45:57;;;;;;;11.10;7.67;;;5.50;99.90;;;;;;5052853;28;20180;-70
2023/12/18 02:48:22;;;;;;;7.97;7.17;;;5.40;99.90;;;;;;5052825;28;20182;-70
2023/12/18 02:50:48;;;;;;;10.30;7.50;;;5.40;99.90;;;;;;5052480;28;20204;-69
2023/12/18 02:53:15;;;;;;;13.40;7.60;;;5.30;99.90;;;;;;5052751;28;20292;-70
2023/12/18 02:55:40;;;;;;;12.27;7.87;;;5.40;99.90;;;;;;5052948;28;20643;-69
2023/12/18 02:58:06;;;;;;;11.37;7.60;;;5.40;92.50;;;;;;5053129;28;20167;-70
2023/12/18 03:00:32;;;;;;;9.77;7.20;;;5.50;41.90;;;;;;5051510;28;20202;-70
2023/12/18 03:02:58;;;;;;;7.97;7.17;;;5.60;21.50;;;;;;5057016;28;20620;-70
2023/12/18 03:05:23;;;;;;;8.40;7.00;;;5.60;29.40;;;;;;5057209;28;20686;-70
2023/12/18 03:07:49;;;;;;;13.27;8.70;;;5.60;93.70;;;;;;5055285;28;20174;-69
2023/12/18 03:10:15;;;;;;;9.33;8.00;;;5.60;3.30;;;;;;5055446;28;20199;-70
2023/12/18 03:12:41;;;;;;;9.67;7.43;;;5.50;14.30;;;;;;5056768;28;20543;-70
2023/12/18 03:15:07;;;;;;;12.23;8.20;;;5.50;94.60;;;;;;5056857;28;20194;-70
2023/12/18 03:17:33;;;;;;;11.87;8.67;;;5.60;7.40;;;;;;5055397;28;20178;-70
2023/12/18 03:19:59;;;;;;;15.17;9.17;;;5.50;62.90;;;;;;5056626;28;20301;-70
2023/12/18 03:22:24;;;;;;;9.30;8.07;;;5.60;34.10;;;;;;5056469;28;20170;-69
2023/12/18 03:24:50;;;;;;;11.17;8.03;;;5.50;66.30;;;;;;5056500;28;20733;-70
2023/12/18 03:27:16;;;;;;;13.87;8.13;;;5.50;99.90;;;;;;5055218;28;20608;-70
2023/12/18 03:29:42;;;;;;;10.40;7.70;;;5.50;19.10;;;;;;5056337;28;20191;-70
2023/12/18 03:32:08;;;;;;;10.80;8.70;;;5.60;46.20;;;;;;5056608;28;20682;-70
2023/12/18 03:34:34;;;;;;;10.20;7.87;;;5.50;9.30;;;;;;5056194;28;20730;-70
2023/12/18 03:37:00;;;;;;;15.27;9.00;;;5.50;39.10;;;;;;5055953;28;20544;-70
2023/12/18 03:39:25;;;;;;;10.30;8.13;;;5.40;24.50;;;;;;5056185;28;20193;-70
2023/12/18 03:41:51;;;;;;;12.03;9.07;;;5.40;99.90;;;;;;5054939;28;20285;-70
2023/12/18 03:44:17;;;;;;;11.10;8.37;;;5.30;99.90;;;;;;5056083;28;20182;-71
2023/12/18 03:46:43;;;;;;;12.33;8.53;;;5.30;99.90;;;;;;5056270;28;20174;-70
2023/12/18 03:49:09;;;;;;;15.83;9.07;;;5.20;99.90;;;;;;5056054;28;20274;-70
2023/12/18 03:51:34;;;;;;;10.03;8.47;;;5.10;99.90;;;;;;5056068;28;20178;-70
2023/12/18 03:54:00;;;;;;;12.17;8.17;;;5.00;99.90;;;;;;5055633;28;20209;-70
2023/12/18 03:56:26;;;;;;;16.57;9.60;;;4.90;99.90;;;;;;5055882;28;20563;-70
2023/12/18 03:58:52;;;;;;;12.93;9.23;;;4.80;99.90;;;;;;5056071;28;20246;-70
2023/12/18 04:01:17;;;;;;;11.87;8.63;;;4.80;99.90;;;;;;5055819;28;20225;-70
2023/12/18 04:03:43;;;;;;;13.33;9.30;;;4.70;99.90;;;;;;5055827;28;20182;-68
2023/12/18 04:06:09;;;;;;;13.70;8.70;;;4.70;99.90;;;;;;5055769;28;20186;-70
2023/12/18 04:08:36;;;;;;;11.23;8.60;;;4.70;99.90;;;;;;5055554;28;20182;-70
2023/12/18 04:11:03;;;;;;;14.27;9.03;;;4.60;99.90;;;;;;5055849;28;20190;-70
2023/12/18 04:13:28;;;;;;;12.47;8.87;;;4.50;99.90;;;;;;5055330;28;20559;-70
2023/12/18 04:15:54;;;;;;;11.07;8.83;;;4.50;99.90;;;;;;5055766;28;20228;-70
2023/12/18 04:18:20;;;;;;;10.70;8.13;;;4.40;99.90;;;;;;5055458;28;20181;-70
2023/12/18 04:20:46;;;;;;;11.17;8.57;;;4.40;99.90;;;;;;5055564;28;20191;-70
2023/12/18 04:23:11;;;;;;;12.17;8.70;;;4.40;99.90;;;;;;5055428;28;20227;-70
2023/12/18 04:25:37;;;;;;;10.23;8.23;;;4.30;99.90;;;;;;5055346;28;20166;-70
2023/12/18 04:28:03;;;;;;;13.53;8.63;;;4.30;99.90;;;;;;5055863;28;20159;-71
2023/12/18 04:30:30;;;;;;;10.23;8.30;;;4.20;99.90;;;;;;5054095;28;20290;-70
2023/12/18 04:32:55;;;;;;;10.27;9.30;;;4.30;99.90;;;;;;5055455;28;20171;-70
2023/12/18 04:35:21;;;;;;;15.03;8.80;;;4.30;99.90;;;;;;5054167;28;20206;-70
2023/12/18 04:37:47;;;;;;;14.73;8.93;;;4.20;99.90;;;;;;5055014;28;20175;-70
2023/12/18 04:40:13;;;;;;;12.17;8.40;;;4.20;99.90;;;;;;5053838;28;20619;-70
2023/12/18 04:42:38;;;;;;;10.33;8.57;;;4.20;99.90;;;;;;5055235;28;20246;-70
2023/12/18 04:45:04;;;;;;;11.37;8.60;;;4.20;99.90;;;;;;5055283;28;20644;-70
2023/12/18 04:47:30;;;;;;;11.03;8.40;;;4.40;99.90;;;;;;5055694;28;20175;-70
2023/12/18 04:49:56;;;;;;;12.07;9.00;;;4.30;99.90;;;;;;5055466;28;20210;-70
2023/12/18 04:52:22;;;;;;;10.63;9.10;;;4.30;99.90;;;;;;5055469;28;20175;-69
2023/12/18 04:54:47;;;;;;;15.27;8.97;;;4.30;99.90;;;;;;5055800;28;20205;-70
2023/12/18 04:57:13;;;;;;;17.70;9.70;;;4.40;99.90;;;;;;5055869;28;20170;-70
2023/12/18 04:59:40;;;;;;;12.93;9.80;;;4.40;99.90;;;;;;5053834;28;20202;-70
2023/12/18 05:02:05;;;;;;;14.53;9.70;;;4.30;99.90;;;;;;5055178;28;20163;-70
2023/12/18 05:04:31;;;;;;;11.90;9.27;;;4.30;99.90;;;;;;5054984;28;20185;-70
2023/12/18 05:06:57;;;;;;;11.53;8.63;;;4.20;99.90;;;;;;5054789;28;20183;-70
2023/12/18 05:09:23;;;;;;;15.00;9.73;;;4.20;99.90;;;;;;5054351;28;20226;-70
2023/12/18 05:11:48;;;;;;;11.37;9.03;;;4.10;99.90;;;;;;5055061;28;20248;-70
2023/12/18 05:14:15;;;;;;;14.83;9.10;;;4.10;99.90;;;;;;5054517;28;20202;-69
2023/12/18 05:16:41;;;;;;;12.30;9.80;;;4.00;99.90;;;;;;5053186;28;20185;-69
2023/12/18 05:19:06;;;;;;;12.90;10.13;;;4.10;99.90;;;;;;5054814;28;20249;-69
2023/12/18 05:21:32;;;;;;;12.87;9.83;;;4.10;99.90;;;;;;5054639;28;20174;-69
2023/12/18 05:23:58;;;;;;;15.07;10.33;;;4.10;99.90;;;;;;5051860;28;20206;-69
2023/12/18 05:26:24;;;;;;;16.97;10.83;;;4.10;99.90;;;;;;5054293;28;20174;-69
2023/12/18 05:28:49;;;;;;;16.47;10.50;;;4.00;99.90;;;;;;5054203;28;20547;-69
2023/12/18 05:31:16;;;;;;;18.03;10.20;;;4.00;99.90;;;;;;5053114;28;20202;-69
2023/12/18 05:33:42;;;;;;;13.97;9.97;;;4.00;99.90;;;;;;5054062;28;20205;-69
2023/12/18 05:36:08;;;;;;;16.43;9.73;;;3.90;99.90;;;;;;5054229;28;20178;-68
2023/12/18 05:38:34;;;;;;;16.30;11.20;;;3.80;99.90;;;;;;5053800;28;20202;-69
2023/12/18 05:41:00;;;;;;;17.43;10.50;;;3.80;99.90;;;;;;5053928;28;20217;-69
2023/12/18 05:43:26;;;;;;;13.67;10.43;;;3.80;99.90;;;;;;5053931;28;20171;-68
2023/12/18 05:45:51;;;;;;;17.87;11.47;;;3.70;99.90;;;;;;5054176;28;20649;-69
2023/12/18 05:48:17;;;;;;;14.10;10.73;;;3.70;99.90;;;;;;5053711;28;20562;-69
2023/12/18 05:50:43;;;;;;;13.73;11.60;;;3.60;99.90;;;;;;5053788;28;20285;-68
2023/12/18 05:53:09;;;;;;;14.27;10.43;;;3.60;99.90;;;;;;5053485;28;20202;-69
2023/12/18 05:55:34;;;;;;;18.57;10.70;;;3.60;99.90;;;;;;5053561;28;20259;-69
2023/12/18 05:58:00;;;;;;;20.30;11.50;;;3.60;99.90;;;;;;5053637;28;20583;-69
2023/12/18 06:00:26;;;;;;;18.30;11.30;;;3.50;99.90;;;;;;5053520;28;20273;-69
2023/12/18 06:02:52;;;;;;;13.17;10.37;;;3.50;99.90;;;;;;5053507;28;20670;-69
2023/12/18 06:05:17;;;;;;;12.47;11.13;;;3.50;99.90;;;;;;5053522;28;20242;-69
2023/12/18 06:07:43;;;;;;;14.83;11.47;;;3.50;99.90;;;;;;5051943;28;20552;-69
2023/12/18 06:10:09;;;;;;;17.37;11.80;;;3.50;99.90;;;;;;5053346;28;20244;-69
2023/12/18 06:12:36;;;;;;;16.30;11.47;;;3.50;99.90;;;;;;5053376;28;20706;-69
2023/12/18 06:15:02;;;;;;;18.00;11.20;;;3.50;99.90;;;;;;5053253;28;20573;-69
2023/12/18 06:17:28;;;;;;;17.67;12.07;;;3.50;99.90;;;;;;5053242;28;20190;-69
2023/12/18 06:19:53;;;;;;;27.07;12.17;;;3.50;99.90;;;;;;5053257;28;20663;-69
2023/12/18 06:22:19;;;;;;;17.03;12.07;;;3.50;99.90;;;;;;5051963;28;20186;-68
2023/12/18 06:24:45;;;;;;;18.93;12.13;;;3.50;99.90;;;;;;5053371;28;20254;-69
2023/12/18 06:27:11;;;;;;;17.97;11.87;;;3.50;99.90;;;;;;5051806;28;20174;-70
2023/12/18 06:29:37;;;;;;;17.23;11.97;;;3.40;99.90;;;;;;5053199;28;20220;-69
2023/12/18 06:32:03;;;;;;;16.37;11.87;;;3.40;99.90;;;;;;5053221;28;20170;-69
2023/12/18 06:34:29;;;;;;;16.67;11.50;;;3.40;99.90;;;;;;5053111;28;20208;-69
2023/12/18 06:36:54;;;;;;;18.43;12.80;;;3.50;99.90;;;;;;5053224;28;20237;-69
2023/12/18 06:39:20;;;;;;;19.57;11.97;;;3.50;99.90;;;;;;5052747;28;20648;-69
2023/12/18 06:41:46;;;;;;;17.67;12.07;;;3.60;99.90;;;;;;5051715;28;20178;-69
2023/12/18 06:44:12;;;;;;;15.23;11.40;;;3.50;99.90;;;;;;5052918;28;20555;-69
2023/12/18 06:46:37;;;;;;;18.90;12.37;;;3.50;99.90;;;;;;5051667;28;20186;-69
2023/12/18 06:49:03;;;;;;;18.27;12.10;;;3.50;99.90;;;;;;5052685;28;20186;-69
2023/12/18 06:51:29;;;;;;;19.67;12.90;;;3.60;99.90;;;;;;5052894;28;20621;-69
2023/12/18 06:53:55;;;;;;;15.97;12.73;;;3.60;99.90;;;;;;5052645;28;20277;-68
2023/12/18 06:56:21;;;;;;;16.97;12.67;;;3.60;99.90;;;;;;5053037;28;20297;-69
2023/12/18 06:58:47;;;;;;;18.50;12.93;;;3.60;99.90;;;;;;5052998;28;20249;-69
2023/12/18 07:01:16;;;;;;;19.23;12.00;;;3.60;99.90;;;;;;5052885;28;20202;-69
2023/12/18 07:03:42;;;;;;;19.30;11.57;;;3.50;99.90;;;;;;5052970;28;20161;-69
2023/12/18 07:06:08;;;;;;;20.90;12.53;;;3.50;99.90;;;;;;5053092;28;20174;-69
2023/12/18 07:08:34;;;;;;;16.23;11.57;;;3.40;99.90;;;;;;5051310;28;20269;-69
2023/12/18 07:11:00;;;;;;;20.33;12.33;;;3.40;99.90;;;;;;5051481;28;20289;-69
2023/12/18 07:13:26;;;;;;;17.37;12.67;;;3.30;99.90;;;;;;5052779;28;20182;-69
2023/12/18 07:15:52;;;;;;;20.93;13.20;;;3.20;99.90;;;;;;5051495;28;20178;-69
2023/12/18 07:18:18;;;;;;;17.97;12.33;;;3.20;99.90;;;;;;5052643;28;20253;-69
2023/12/18 07:20:44;;;;;;;16.70;13.43;;;3.20;99.90;;;;;;5051287;28;20229;-69
2023/12/18 07:23:10;;;;;;;20.17;13.33;;;3.20;99.90;;;;;;5051276;28;20596;-69
2023/12/18 07:25:37;;;;;;;22.43;13.10;;;3.20;99.90;;;;;;5052914;28;20209;-69
2023/12/18 07:28:09;;;;;;;18.83;12.53;;;3.20;99.90;;;;;;5051559;28;20670;-69
2023/12/18 07:30:38;;;;;;;23.07;13.03;;;3.20;99.90;;;;;;5051304;28;20753;-69
2023/12/18 07:33:05;;;;;;;22.00;13.17;;;3.20;99.90;;;;;;5051292;28;20254;-69
2023/12/18 07:35:30;;;;;;;21.93;14.13;;;3.30;99.90;;;;;;5052456;28;20198;-69
2023/12/18 07:37:56;;;;;;;20.07;12.67;;;3.20;99.90;;;;;;5052347;28;20175;-68
2023/12/18 07:40:22;;;;;;;19.37;13.87;;;3.30;99.90;;;;;;5052569;28;20691;-69
2023/12/18 07:42:48;;;;;;;17.10;13.43;;;3.20;99.90;;;;;;5051262;28;20244;-69
2023/12/18 07:45:14;;;;;;;19.87;12.97;;;3.20;99.90;;;;;;5051050;28;20186;-69
2023/12/18 07:47:41;;;;;;;23.17;14.00;;;3.20;99.90;;;;;;5053892;28;20674;-69
2023/12/18 07:50:07;;;;;;;21.13;14.00;;;3.20;99.90;;;;;;5055977;28;20300;-69
2023/12/18 07:52:33;;;;;;;21.77;13.23;;;3.20;99.90;;;;;;5056141;28;20182;-69
2023/12/18 07:54:59;;;;;;;22.03;15.20;;;3.20;99.90;;;;;;5056395;28;20589;-69
2023/12/18 07:57:25;;;;;;;29.63;16.33;;;3.30;99.90;;;;;;5056729;28;20170;-69
2023/12/18 07:59:51;;;;;;;23.20;16.97;;;3.30;99.90;;;;;;5056406;28;20198;-68
2023/12/18 08:02:17;;;;;;;27.23;16.67;;;3.40;99.90;;;;;;5054673;28;20175;-69
2023/12/18 08:04:43;;;;;;;27.20;17.27;;;3.40;99.90;;;;;;5054704;28;20611;-69
2023/12/18 08:07:09;;;;;;;23.10;17.03;;;3.50;99.90;;;;;;5055942;28;20547;-68
2023/12/18 08:09:34;;;;;;;22.70;17.30;;;3.50;99.90;;;;;;5055729;28;20241;-69
2023/12/18 08:12:00;;;;;;;29.83;17.87;;;3.60;99.90;;;;;;5056726;28;20179;-69
2023/12/18 08:14:26;;;;;;;25.57;18.43;;;3.60;99.90;;;;;;5067884;28;20202;-78
2023/12/18 08:16:52;;;;;;;29.97;19.17;;;3.60;99.90;;;;;;5063331;28;20178;-68
2023/12/18 08:19:18;;;;;;;30.10;17.70;;;3.60;99.90;;;;;;5056157;28;20195;-68
2023/12/18 08:21:44;;;;;;;24.90;18.20;;;3.70;99.90;;;;;;5056001;28;20178;-68
2023/12/18 08:24:10;;;;;;;27.00;18.20;;;3.70;99.90;;;;;;5054067;28;20186;-68
2023/12/18 08:26:36;;;;;;;29.53;19.60;;;3.70;99.90;;;;;;5054559;28;20189;-68
2023/12/18 08:29:02;;;;;;;31.00;19.27;;;3.70;99.90;;;;;;5055882;28;20186;-67
2023/12/18 08:31:28;;;;;;;31.13;19.53;;;3.80;99.90;;;;;;5056302;28;20182;-68
2023/12/18 08:33:54;;;;;;;35.03;19.33;;;3.80;99.90;;;;;;5055603;28;20244;-67
2023/12/18 08:36:19;;;;;;;37.43;20.30;;;3.90;99.90;;;;;;5055900;28;20174;-69
2023/12/18 08:38:45;;;;;;;35.53;21.50;;;3.90;99.90;;;;;;5055080;28;20189;-68
2023/12/18 08:41:11;;;;;;;29.93;19.60;;;4.00;99.90;;;;;;5055375;28;20229;-69
2023/12/18 08:43:37;;;;;;;39.13;22.70;;;4.00;99.90;;;;;;5055713;28;20253;-69
2023/12/18 08:46:03;;;;;;;30.77;20.13;;;4.00;99.90;;;;;;5055143;28;20678;-68
2023/12/18 08:48:29;;;;;;;35.50;21.50;;;4.00;99.90;;;;;;5055577;28;20190;-67
2023/12/18 08:50:54;;;;;;;36.43;19.87;;;4.10;99.90;;;;;;5053601;28;20206;-69
2023/12/18 08:53:20;;;;;;;39.30;21.40;;;4.10;99.90;;;;;;5054947;28;20185;-69
2023/12/18 08:55:46;;;;;;;32.73;21.80;;;4.10;99.90;;;;;;5055275;28;20628;-68
2023/12/18 08:58:12;;;;;;;33.33;20.77;;;4.20;99.90;;;;;;5053654;28;20191;-69
2023/12/18 09:00:37;;;;;;;32.57;20.83;;;4.20;99.90;;;;;;5054878;28;20197;-69
2023/12/18 09:03:04;;;;;;;33.13;21.33;;;4.30;99.90;;;;;;5054798;28;20662;-69
2023/12/18 09:05:31;;;;;;;35.47;22.50;;;4.30;99.90;;;;;;5054714;28;20663;-69
2023/12/18 09:07:57;;;;;;;33.73;23.20;;;4.30;99.90;;;;;;5053199;28;20182;-68
2023/12/18 09:10:24;;;;;;;34.60;20.87;;;4.30;99.90;;;;;;5055354;28;20248;-69
2023/12/18 09:12:51;;;;;;;34.03;21.27;;;4.30;99.90;;;;;;5054765;28;20170;-69
2023/12/18 09:15:17;;;;;;;32.77;22.27;;;4.40;99.90;;;;;;5054536;28;20202;-68
2023/12/18 09:17:43;;;;;;;31.87;21.23;;;4.40;99.90;;;;;;5054693;28;20547;-69
2023/12/18 09:20:09;;;;;;;31.57;21.27;;;4.40;99.90;;;;;;5053206;28;20288;-69
2023/12/18 09:22:36;;;;;;;29.83;21.13;;;4.50;99.90;;;;;;5054507;28;20170;-69
2023/12/18 09:25:03;;;;;;;35.37;21.40;;;4.50;99.90;;;;;;5054459;28;20547;-68
2023/12/18 09:27:29;;;;;;;36.23;21.83;;;4.60;99.90;;;;;;5054621;28;20591;-69
2023/12/18 09:29:54;;;;;;;35.47;21.50;;;4.50;99.90;;;;;;5054409;28;20191;-69
2023/12/18 09:32:20;;;;;;;35.97;21.13;;;4.60;99.90;;;;;;5054306;28;20553;-69
2023/12/18 09:34:46;;;;;;;35.53;20.40;;;4.60;99.90;;;;;;5053004;28;20210;-69
2023/12/18 09:37:12;;;;;;;32.93;20.43;;;4.60;99.90;;;;;;5054297;28;20618;-70
2023/12/18 09:39:41;;;;;;;29.50;21.17;;;4.60;99.90;;;;;;5053910;28;20195;-69
2023/12/18 09:42:09;;;;;;;32.90;19.37;;;4.60;99.90;;;;;;5052921;28;20656;-69
2023/12/18 09:44:36;;;;;;;29.70;19.40;;;4.70;99.90;;;;;;5052857;28;20264;-69
2023/12/18 09:47:03;;;;;;;30.60;19.50;;;4.70;99.90;;;;;;5052719;28;20235;-68
2023/12/18 09:49:28;;;;;;;25.97;18.03;;;4.70;99.90;;;;;;5052552;28;20256;-69
2023/12/18 09:52:00;;;;;;;31.30;19.50;;;4.70;99.90;;;;;;5052728;28;20566;-69
2023/12/18 09:54:27;;;;;;;29.77;20.30;;;4.70;99.90;;;;;;5053589;28;20196;-69
2023/12/18 09:56:55;;;;;;;30.93;20.07;;;4.80;99.90;;;;;;5054055;28;20175;-69
2023/12/18 09:59:22;;;;;;;29.47;19.23;;;4.80;99.90;;;;;;5052482;28;20786;-69
2023/12/18 10:01:48;;;;;;;33.10;20.37;;;4.80;99.90;;;;;;5053184;28;20570;-69
2023/12/18 10:04:14;;;;;;;31.07;20.27;;;4.80;99.90;;;;;;5053821;28;20186;-69
2023/12/18 10:06:40;;;;;;;32.07;21.37;;;4.80;99.90;;;;;;5052375;28;20232;-68
2023/12/18 10:09:15;;;;;;;31.10;19.07;;;4.80;99.90;;;;;;5052233;28;20210;-69
2023/12/18 10:11:44;;;;;;;34.27;19.33;;;4.90;99.90;;;;;;5052126;28;20528;-69
2023/12/18 10:14:16;;;;;;;27.93;18.77;;;4.90;99.90;;;;;;5053885;28;20222;-68
2023/12/18 10:16:43;;;;;;;23.57;16.27;;;5.10;99.90;;;;;;5053281;28;20174;-69
2023/12/18 10:19:09;;;;;;;27.30;17.97;;;5.40;99.90;;;;;;5053873;28;20190;-68
2023/12/18 10:21:37;;;;;;;26.03;19.03;;;5.50;99.90;;;;;;5053372;28;20170;-68
2023/12/18 10:24:04;;;;;;;23.80;17.47;;;5.60;99.90;;;;;;5051779;28;20610;-68
2023/12/18 10:26:31;;;;;;;22.53;16.87;;;5.60;99.90;;;;;;5053286;28;20180;-69
2023/12/18 10:28:57;;;;;;;23.50;17.00;;;5.70;99.90;;;;;;5053385;28;20312;-68
2023/12/18 10:31:25;;;;;;;26.07;15.90;;;5.70;99.90;;;;;;5053207;28;20260;-69
2023/12/18 10:33:51;;;;;;;22.60;16.07;;;5.70;99.90;;;;;;5053154;28;20294;-69
2023/12/18 10:36:19;;;;;;;25.83;16.23;;;5.70;99.90;;;;;;5051933;28;20182;-69
2023/12/18 10:38:51;;;;;;;22.53;16.13;;;5.70;99.90;;;;;;5052874;28;20624;-69
2023/12/18 10:41:21;;;;;;;22.23;15.93;;;5.60;99.90;;;;;;5053265;28;20205;-68
2023/12/18 10:43:49;;;;;;;22.37;15.93;;;5.80;99.90;;;;;;5053523;28;20193;-68
2023/12/18 10:46:15;;;;;;;20.77;15.10;;;5.90;99.90;;;;;;5053093;28;20182;-68
2023/12/18 10:48:42;;;;;;;21.27;15.53;;;6.10;99.90;;;;;;5053065;28;20190;-69
2023/12/18 10:51:09;;;;;;;19.57;15.00;;;6.20;99.90;;;;;;5052847;28;20205;-69
2023/12/18 10:53:37;;;;;;;18.80;13.77;;;6.00;86.10;;;;;;5052576;28;20674;-69
2023/12/18 10:56:05;;;;;;;18.87;13.83;;;5.90;99.90;;;;;;5051853;28;20184;-70
2023/12/18 10:58:31;;;;;;;18.70;14.50;;;5.80;99.90;;;;;;5051766;28;20201;-67
2023/12/18 11:00:59;;;;;;;17.67;14.27;;;5.70;99.90;;;;;;5051822;28;20194;-70
2023/12/18 11:03:26;;;;;;;24.87;15.23;;;5.50;99.90;;;;;;5051704;28;20190;-69
2023/12/18 11:05:54;;;;;;;20.50;15.57;;;5.30;99.90;;;;;;5052992;28;20174;-68
2023/12/18 11:08:20;;;;;;;21.17;16.37;;;5.20;99.90;;;;;;5053013;28;20170;-67
2023/12/18 11:10:46;;;;;;;27.00;16.83;;;5.10;99.90;;;;;;5052978;28;20233;-68
2023/12/18 11:13:21;;;;;;;24.20;16.70;;;5.00;99.90;;;;;;5055006;28;20659;-68
2023/12/18 11:16:08;;;;;;;27.77;17.27;;;5.00;99.90;;;;;;5053465;28;20255;-68
2023/12/18 11:19:30;;;;;;;24.33;17.90;;;5.00;99.90;;;;;;5053085;28;20169;-69
2023/12/18 11:21:56;;;;;;;25.10;16.67;;;5.10;99.90;;;;;;5051080;28;20245;-69
2023/12/18 11:24:22;;;;;;;26.33;18.97;;;5.20;99.90;;;;;;5056300;28;20198;-69
2023/12/18 11:26:49;;;;;;;28.93;17.60;;;5.20;99.90;;;;;;5056854;28;20174;-68
2023/12/18 11:29:37;;;;;;;26.90;17.97;;;5.30;99.90;;;;;;5056803;28;20249;-69
2023/12/18 11:32:03;;;;;;;28.43;17.57;;;5.30;99.90;;;;;;5056678;28;20548;-69
2023/12/18 11:34:29;;;;;;;24.23;16.60;;;5.30;99.90;;;;;;5056624;28;20202;-68
2023/12/18 11:36:56;;;;;;;25.30;16.50;;;5.40;99.90;;;;;;5056593;28;20186;-70
2023/12/18 11:39:22;;;;;;;25.97;16.97;;;5.50;99.90;;;;;;5057600;28;20265;-68
2023/12/18 11:41:48;;;;;;;19.87;15.07;;;5.50;99.90;;;;;;5056331;28;20656;-69
2023/12/18 11:44:16;;;;;;;21.40;15.77;;;5.60;99.90;;;;;;5057676;28;20186;-67
2023/12/18 11:46:44;;;;;;;20.67;14.90;;;5.60;99.90;;;;;;5057054;28;20204;-70
2023/12/18 11:49:12;;;;;;;21.17;14.60;;;5.60;99.90;;;;;;5055053;28;20198;-69
2023/12/18 11:51:42;;;;;;;17.73;13.07;;;5.50;99.90;;;;;;5056332;28;20194;-70
2023/12/18 11:54:08;;;;;;;17.03;12.40;;;5.50;99.90;;;;;;5054612;28;20293;-69
2023/12/18 11:56:41;;;;;;;17.70;12.63;;;5.50;99.90;;;;;;5056302;28;20282;-69
2023/12/18 11:59:08;;;;;;;14.70;12.50;;;5.50;99.90;;;;;;5056167;28;20231;-70
2023/12/18 12:01:34;;;;;;;17.23;12.07;;;5.40;99.90;;;;;;5056069;28;20171;-69
2023/12/18 12:04:00;;;;;;;12.83;10.67;;;5.50;99.90;;;;;;5055898;28;20178;-68
2023/12/18 12:06:26;;;;;;;13.23;11.07;;;5.50;99.90;;;;;;5055928;28;20174;-70
2023/12/18 12:08:52;;;;;;;11.93;10.47;;;5.50;99.90;;;;;;5055984;28;20534;-69
2023/12/18 12:11:19;;;;;;;13.57;10.57;;;5.40;99.90;;;;;;5054266;28;20194;-70
2023/12/18 12:13:47;;;;;;;14.07;10.93;;;5.40;99.90;;;;;;5054253;28;20258;-67
2023/12/18 12:16:17;;;;;;;13.10;10.60;;;5.40;99.90;;;;;;5054352;28;20210;-69
2023/12/18 12:18:50;;;;;;;11.10;9.90;;;5.40;99.90;;;;;;5056195;28;20159;-70
2023/12/18 12:21:17;;;;;;;12.07;10.37;;;5.40;99.90;;;;;;5054149;28;20686;-70
2023/12/18 12:23:46;;;;;;;12.47;10.33;;;5.40;99.90;;;;;;5055219;28;20181;-70
2023/12/18 12:26:14;;;;;;;13.63;10.83;;;5.50;99.90;;;;;;5055472;28;20245;-69
2023/12/18 12:28:42;;;;;;;12.73;9.60;;;5.50;99.90;;;;;;5054187;28;20170;-70
2023/12/18 12:31:08;;;;;;;16.10;10.77;;;5.50;99.90;;;;;;5054001;28;20190;-71
2023/12/18 12:33:44;;;;;;;11.87;9.93;;;5.50;99.90;;;;;;5053516;28;20170;-67
2023/12/18 12:36:15;;;;;;;12.67;9.30;;;5.50;99.90;;;;;;5055313;28;20620;-70
2023/12/18 12:38:42;;;;;;;13.20;9.97;;;5.50;99.90;;;;;;5055391;28;20164;-70